Spangsville, Pennsylvania
Current Conditions -  °F | °C
As of 4:54 PM on Tuesday 25 Nov 2014 (Local Time) from KPTW Reporting Station
Clear Clear  
Wind Chill: 50°   Ceiling: Unl
Heat Index: 50°   Visibility: 10mi
Dew Point: 28°   Wind: 3mph
Humidity: 43%   Direction: 200°SSW
Pressure: 30.05"   Gusts: NA
Location:  40.3481°N, 75.6818°W
Report Text: KPTW 252154Z AUTO 20003KT 10SM CLR 10/M02 A3005 RMK AO2 SLP175 T01001022
Loading
Personal Weather Stations






























Interactive Weather Map New forecast layout! Learn more

10-Day Weather Forecast

Advertisements
Track Severe Weather on mobile